createdAt,value
2022-09-28T00:01:20.692Z,71.32
2022-09-28T00:03:48.981Z,71.28
2022-09-28T00:06:20.024Z,71.85
2022-09-28T00:08:47.106Z,71.33
2022-09-28T00:11:15.654Z,71.86
2022-09-28T00:13:43.348Z,71.95
2022-09-28T00:16:16.918Z,71.98
2022-09-28T00:18:44.834Z,72.27
2022-09-28T00:21:18.012Z,72.44
2022-09-28T00:24:04.069Z,73.41
2022-09-28T00:26:32.896Z,72.97
2022-09-28T00:29:01.510Z,73.25
2022-09-28T00:31:31.721Z,72.04
2022-09-28T00:34:00.472Z,72.50
2022-09-28T00:36:30.169Z,72.16
2022-09-28T00:38:58.302Z,71.00
2022-09-28T00:41:27.397Z,70.24
2022-09-28T00:44:15.200Z,70.53
2022-09-28T00:46:42.106Z,70.67
2022-09-28T00:49:16.089Z,70.01
2022-09-28T00:51:45.512Z,69.71
2022-09-28T00:54:14.702Z,69.91
2022-09-28T00:56:44.512Z,69.96
2022-09-28T00:59:11.370Z,70.72
2022-09-28T01:01:38.996Z,71.01
2022-09-28T01:04:06.893Z,71.66
2022-09-28T01:06:38.142Z,71.59
2022-09-28T01:09:10.055Z,72.38
2022-09-28T01:11:38.489Z,72.08
2022-09-28T01:14:13.003Z,71.77
2022-09-28T01:17:08.452Z,72.11
2022-09-28T01:20:06.606Z,71.96
2022-09-28T01:22:47.636Z,72.14
2022-09-28T01:25:29.887Z,72.24
2022-09-28T01:28:21.037Z,72.17
2022-09-28T01:31:15.289Z,72.54
2022-09-28T01:33:47.497Z,73.17
2022-09-28T01:36:25.215Z,73.58
2022-09-28T01:39:08.094Z,74.19
2022-09-28T01:41:38.470Z,73.60
2022-09-28T01:44:09.797Z,73.39
2022-09-28T01:46:42.101Z,73.61
2022-09-28T01:49:14.930Z,73.91
2022-09-28T01:51:59.176Z,74.22
2022-09-28T01:54:38.876Z,73.55
2022-09-28T01:57:11.999Z,73.70
2022-09-28T01:59:46.554Z,74.02
2022-09-28T02:02:18.908Z,74.50
2022-09-28T02:04:51.705Z,74.43
2022-09-28T02:07:20.744Z,75.01
2022-09-28T02:10:01.150Z,75.59
2022-09-28T02:12:36.083Z,75.42
2022-09-28T02:15:20.861Z,75.69
2022-09-28T02:17:48.119Z,75.35
2022-09-28T02:20:17.356Z,75.17
2022-09-28T02:22:49.396Z,74.68
2022-09-28T02:25:40.397Z,74.88
2022-09-28T02:28:11.173Z,74.65
2022-09-28T02:30:40.773Z,74.12
2022-09-28T02:33:22.663Z,72.94
2022-09-28T02:35:50.129Z,73.46
2022-09-28T02:38:20.317Z,73.63
2022-09-28T02:41:02.241Z,74.17
2022-09-28T02:43:50.122Z,74.86
2022-09-28T02:46:30.487Z,75.36
2022-09-28T02:49:21.861Z,75.71
2022-09-28T02:52:16.754Z,76.50
2022-09-28T02:54:54.275Z,76.85
2022-09-28T02:57:38.095Z,77.68
2022-09-28T03:00:33.774Z,77.85
2022-09-28T03:03:32.611Z,77.83
2022-09-28T03:06:05.285Z,77.66
2022-09-28T03:08:54.565Z,77.82
2022-09-28T03:11:53.548Z,78.49
2022-09-28T03:14:20.780Z,77.81
2022-09-28T03:16:53.996Z,77.42
2022-09-28T03:19:27.934Z,77.36
2022-09-28T03:21:55.826Z,77.22
2022-09-28T03:24:22.580Z,77.50
2022-09-28T03:26:49.855Z,77.79
2022-09-28T03:29:16.670Z,77.96
2022-09-28T03:31:47.931Z,77.44
2022-09-28T03:34:14.998Z,77.38
2022-09-28T03:36:43.052Z,77.54
2022-09-28T03:39:10.077Z,76.62
2022-09-28T03:41:38.284Z,77.09
2022-09-28T03:44:05.258Z,77.94
2022-09-28T03:46:33.160Z,77.44
2022-09-28T03:49:05.349Z,77.63
2022-09-28T03:51:32.088Z,77.10
2022-09-28T03:53:58.588Z,76.77
2022-09-28T03:56:26.429Z,76.75
2022-09-28T03:58:53.057Z,76.55
2022-09-28T04:01:20.319Z,78.13
2022-09-28T04:03:48.077Z,77.51
2022-09-28T04:06:15.663Z,77.41
2022-09-28T04:08:43.408Z,76.98
2022-09-28T04:11:10.651Z,77.21
2022-09-28T04:13:37.376Z,76.71
2022-09-28T04:16:06.458Z,76.32
2022-09-28T04:18:35.279Z,75.29
2022-09-28T04:21:11.161Z,75.58
2022-09-28T04:23:47.476Z,75.62
2022-09-28T04:26:22.655Z,77.25
2022-09-28T04:29:09.266Z,77.21
2022-09-28T04:31:45.949Z,78.09
2022-09-28T04:34:17.377Z,78.61
2022-09-28T04:36:45.469Z,78.78
2022-09-28T04:39:17.080Z,78.40
2022-09-28T04:41:53.684Z,78.15
2022-09-28T04:44:20.376Z,78.63
2022-09-28T04:46:49.152Z,78.68
2022-09-28T04:49:27.875Z,78.44
2022-09-28T04:52:18.693Z,77.96
2022-09-28T04:54:48.509Z,77.70
2022-09-28T04:57:16.285Z,77.33
2022-09-28T04:59:42.808Z,77.42
2022-09-28T05:02:09.637Z,76.90
2022-09-28T05:04:56.555Z,77.23
2022-09-28T05:07:42.879Z,77.37
2022-09-28T05:10:11.347Z,77.27
2022-09-28T05:12:39.711Z,77.38
2022-09-28T05:15:06.718Z,77.29
2022-09-28T05:17:33.780Z,78.14
2022-09-28T05:20:10.142Z,78.69
2022-09-28T05:22:37.011Z,78.28
2022-09-28T05:25:05.447Z,78.27
2022-09-28T05:27:43.400Z,77.42
2022-09-28T05:30:24.567Z,77.72
2022-09-28T05:33:05.710Z,77.74
2022-09-28T05:35:44.721Z,77.70
2022-09-28T05:38:11.546Z,76.68
2022-09-28T05:40:38.653Z,77.04
2022-09-28T05:43:05.590Z,75.55
2022-09-28T05:45:33.200Z,76.06
2022-09-28T05:48:00.503Z,76.19
2022-09-28T05:50:28.211Z,75.39
2022-09-28T05:53:02.811Z,74.52
2022-09-28T05:55:29.966Z,74.07
2022-09-28T05:58:01.373Z,74.17
2022-09-28T06:00:34.471Z,74.59
2022-09-28T06:03:09.198Z,73.75
2022-09-28T06:05:39.481Z,74.57
2022-09-28T06:08:08.428Z,75.04
2022-09-28T06:10:36.006Z,75.57
2022-09-28T06:13:03.307Z,76.02
2022-09-28T06:15:32.236Z,76.63
2022-09-28T06:18:06.431Z,77.71
2022-09-28T06:20:53.439Z,77.01
2022-09-28T06:23:30.546Z,77.45
2022-09-28T06:25:59.883Z,77.71
2022-09-28T06:28:27.185Z,77.26
2022-09-28T06:30:54.603Z,77.84
2022-09-28T06:33:22.047Z,77.14
2022-09-28T06:35:48.708Z,77.61
2022-09-28T06:38:16.231Z,77.94
2022-09-28T06:40:42.994Z,77.84
2022-09-28T06:43:11.803Z,79.16
2022-09-28T06:46:10.542Z,78.18
2022-09-28T06:48:55.971Z,78.57
2022-09-28T06:51:52.018Z,77.88
2022-09-28T09:08:13.557Z,70.95
2022-09-28T09:10:52.468Z,71.30
2022-09-28T09:13:40.493Z,72.04
2022-09-28T09:16:26.379Z,71.61
2022-09-28T09:19:14.683Z,71.07
2022-09-28T09:22:39.124Z,72.90
2022-09-28T09:25:18.278Z,72.48
2022-09-28T09:27:50.645Z,72.62
2022-09-28T09:30:28.698Z,73.15
2022-09-28T09:33:42.604Z,73.03
2022-09-28T09:37:03.305Z,72.96
2022-09-28T09:40:14.853Z,74.75
2022-09-28T09:43:27.928Z,74.30
2022-09-28T09:46:18.053Z,74.02
2022-09-28T09:49:12.247Z,73.87
2022-09-28T09:52:00.944Z,73.21
2022-09-28T09:54:42.179Z,73.97
2022-09-28T09:57:15.893Z,75.17
2022-09-28T10:00:03.235Z,74.13
2022-09-28T10:02:49.801Z,73.22
2022-09-28T10:05:35.871Z,72.09
2022-09-28T10:08:12.081Z,71.95
2022-09-28T10:10:49.579Z,72.75
2022-09-28T10:13:19.788Z,70.44
2022-09-28T10:15:47.874Z,69.78
2022-09-28T10:18:33.466Z,71.48
2022-09-28T10:21:15.598Z,73.93
2022-09-28T10:23:57.143Z,72.44
2022-09-28T10:26:40.821Z,72.25
2022-09-28T10:30:00.819Z,72.08
2022-09-28T10:32:39.165Z,72.61
2022-09-28T10:35:18.712Z,73.34
2022-09-28T10:38:03.322Z,74.71
2022-09-28T10:40:54.515Z,75.45
2022-09-28T10:44:08.668Z,74.33
2022-09-28T10:47:02.596Z,74.20
2022-09-28T10:49:47.239Z,75.22
2022-09-28T10:52:28.211Z,75.50
2022-09-28T10:54:55.922Z,75.73
2022-09-28T10:57:35.909Z,73.95
2022-09-28T11:00:08.162Z,75.36
2022-09-28T11:02:41.735Z,76.36
2022-09-28T11:05:28.023Z,75.95
2022-09-28T11:08:00.748Z,75.83
2022-09-28T11:10:34.755Z,75.64
2022-09-28T11:13:10.386Z,76.98
2022-09-28T11:15:46.214Z,78.22
2022-09-28T11:18:48.799Z,79.36
2022-09-28T11:22:18.393Z,77.38
2022-09-28T11:25:49.324Z,75.67
2022-09-28T11:30:54.860Z,77.46
2022-09-28T11:33:38.855Z,77.34
2022-09-28T11:36:46.798Z,77.42
2022-09-28T11:39:33.567Z,77.03
2022-09-28T11:43:01.706Z,77.13
2022-09-28T11:45:54.759Z,76.98
2022-09-28T11:48:34.692Z,78.15
2022-09-28T11:51:12.883Z,77.28
2022-09-28T11:53:45.606Z,77.46
2022-09-28T11:56:32.218Z,75.99
2022-09-28T11:59:06.151Z,75.62
2022-09-28T12:01:51.633Z,76.33
2022-09-28T12:04:38.527Z,76.01
2022-09-28T12:07:24.659Z,76.38
2022-09-28T12:09:57.848Z,76.55
2022-09-28T12:12:54.899Z,74.67
2022-09-28T12:15:25.725Z,72.32
2022-09-28T12:18:14.576Z,71.77
2022-09-28T12:21:05.340Z,71.69
2022-09-28T12:23:35.964Z,71.51
2022-09-28T12:26:26.272Z,70.63
2022-09-28T12:29:01.278Z,68.96
2022-09-28T12:31:50.726Z,68.40
2022-09-28T12:34:17.840Z,68.44
2022-09-28T12:37:02.912Z,69.46
2022-09-28T12:39:56.981Z,68.41
2022-09-28T12:42:29.199Z,69.74
2022-09-28T12:45:10.045Z,68.92
2022-09-28T12:48:07.968Z,67.36
2022-09-28T12:50:58.131Z,65.89
2022-09-28T12:53:29.784Z,63.40
2022-09-28T12:56:06.319Z,61.77
2022-09-28T12:58:48.444Z,62.70
2022-09-28T13:01:38.903Z,59.96
2022-09-28T13:04:13.504Z,61.47
2022-09-28T13:06:52.222Z,61.45
2022-09-28T13:09:25.657Z,59.44
2022-09-28T13:11:54.682Z,59.69
2022-09-28T13:14:43.878Z,60.70
2022-09-28T13:17:22.735Z,59.18
2022-09-28T13:19:55.330Z,59.64
2022-09-28T13:22:44.079Z,58.98
2022-09-28T13:25:20.021Z,59.05
2022-09-28T13:28:06.370Z,60.25
2022-09-28T13:30:36.612Z,62.43
2022-09-28T13:33:06.053Z,60.77
2022-09-28T13:35:46.897Z,61.77
2022-09-28T13:38:17.577Z,61.15
2022-09-28T13:41:06.008Z,61.23
2022-09-28T13:44:17.016Z,61.68
2022-09-28T13:47:26.488Z,62.19
2022-09-28T13:50:16.760Z,60.99
2022-09-28T13:52:54.543Z,59.76
2022-09-28T13:55:24.778Z,61.48
2022-09-28T13:58:01.060Z,63.34
2022-09-28T14:00:58.397Z,62.60
2022-09-28T14:03:27.524Z,62.19
2022-09-28T14:06:31.534Z,62.56
2022-09-28T14:09:14.062Z,63.57
2022-09-28T14:11:54.377Z,63.76
2022-09-28T14:14:44.546Z,63.44
2022-09-28T14:17:30.378Z,62.39
2022-09-28T14:20:12.931Z,61.25
2022-09-28T14:23:05.671Z,61.54
2022-09-28T14:25:45.651Z,61.57
2022-09-28T14:28:24.813Z,60.68
2022-09-28T14:30:56.813Z,61.40
2022-09-28T14:33:23.944Z,61.08
2022-09-28T14:36:45.647Z,59.67
2022-09-28T14:39:46.552Z,60.22
2022-09-28T14:42:21.520Z,60.50
2022-09-28T14:45:06.368Z,61.26
2022-09-28T14:47:40.664Z,61.57
2022-09-28T14:50:30.108Z,60.65
2022-09-28T14:53:12.430Z,61.63
2022-09-28T14:55:48.191Z,61.57
2022-09-28T14:58:19.791Z,63.20
2022-09-28T15:00:49.115Z,62.97
2022-09-28T15:03:17.268Z,63.59
2022-09-28T15:05:49.631Z,63.68
2022-09-28T15:08:21.037Z,62.80
2022-09-28T15:10:49.997Z,62.35
2022-09-28T15:13:27.453Z,62.13
2022-09-28T15:16:16.678Z,61.97
2022-09-28T15:19:13.609Z,62.60
2022-09-28T15:21:50.372Z,61.62
2022-09-28T15:24:32.475Z,61.79
2022-09-28T15:27:02.622Z,61.42
2022-09-28T15:29:33.355Z,62.62
2022-09-28T15:32:00.321Z,62.17
2022-09-28T15:34:52.129Z,62.81
2022-09-28T15:37:24.098Z,61.72
2022-09-28T15:39:52.930Z,63.03
2022-09-28T15:42:20.540Z,63.55
2022-09-28T15:45:26.958Z,63.57
2022-09-28T15:48:19.139Z,63.38
2022-09-28T15:51:13.086Z,63.21
2022-09-28T15:54:09.364Z,63.29
2022-09-28T15:56:59.945Z,62.25
2022-09-28T15:59:40.224Z,63.05
2022-09-28T16:02:16.802Z,63.27
2022-09-28T16:04:50.673Z,62.61
2022-09-28T16:07:25.307Z,62.56
2022-09-28T16:10:01.899Z,63.14
2022-09-28T16:12:37.724Z,63.47
2022-09-28T16:15:21.799Z,62.99
2022-09-28T16:17:54.028Z,62.58
2022-09-28T16:20:23.184Z,62.70
2022-09-28T16:22:50.749Z,62.80
2022-09-28T16:25:24.732Z,62.56
2022-09-28T16:27:54.228Z,63.00
2022-09-28T16:30:24.954Z,63.19
2022-09-28T16:32:56.476Z,63.48
2022-09-28T16:35:25.788Z,63.82
2022-09-28T16:38:14.438Z,63.69
2022-09-28T16:40:43.250Z,63.76
2022-09-28T16:43:19.461Z,64.34
2022-09-28T16:45:46.523Z,64.04
2022-09-28T16:48:20.406Z,64.54
2022-09-28T16:50:47.529Z,64.41
2022-09-28T16:53:35.822Z,64.55
2022-09-28T16:56:04.483Z,64.78
2022-09-28T16:58:32.066Z,65.01
2022-09-28T17:01:00.153Z,65.63
2022-09-28T17:03:28.166Z,65.65
2022-09-28T17:05:55.760Z,65.72
2022-09-28T17:08:24.821Z,66.51
2022-09-28T17:11:16.927Z,67.22
2022-09-28T17:13:46.110Z,67.18
2022-09-28T17:16:17.747Z,66.83
2022-09-28T17:18:46.067Z,67.21
2022-09-28T17:21:18.519Z,67.28
2022-09-28T17:23:46.926Z,67.49
2022-09-28T17:26:31.026Z,66.68
2022-09-28T17:28:59.501Z,66.02
2022-09-28T17:31:26.834Z,65.51
2022-09-28T17:33:54.747Z,66.20
2022-09-28T17:36:22.217Z,65.82
2022-09-28T17:38:51.192Z,66.33
2022-09-28T17:41:20.797Z,66.54
2022-09-28T17:43:49.063Z,65.98
2022-09-28T17:46:29.083Z,66.33
2022-09-28T17:48:59.655Z,66.19
2022-09-28T17:51:35.174Z,66.90
2022-09-28T17:54:02.290Z,67.56
2022-09-28T17:56:32.506Z,68.02
2022-09-28T17:59:02.974Z,67.15
2022-09-28T18:01:34.328Z,68.72
2022-09-28T18:04:03.187Z,68.43
2022-09-28T18:06:30.119Z,69.27
2022-09-28T18:08:56.738Z,70.08
2022-09-28T18:11:23.318Z,68.66
2022-09-28T18:13:49.895Z,68.55
2022-09-28T18:16:19.736Z,68.08
2022-09-28T18:18:47.426Z,68.82
2022-09-28T18:21:14.223Z,69.01
2022-09-28T18:23:41.166Z,67.84
2022-09-28T18:26:13.022Z,69.16
2022-09-28T18:28:40.267Z,68.99
2022-09-28T18:31:11.638Z,68.20
2022-09-28T18:33:38.836Z,68.27
2022-09-28T18:36:07.043Z,67.91
2022-09-28T18:38:37.673Z,68.31
2022-09-28T18:41:22.955Z,67.50
2022-09-28T18:43:50.419Z,67.36
2022-09-28T18:46:18.435Z,68.45
2022-09-28T18:48:46.396Z,68.66
2022-09-28T18:51:13.379Z,69.62
2022-09-28T18:53:40.492Z,70.25
2022-09-28T18:56:12.472Z,70.46
2022-09-28T18:58:40.516Z,71.09
2022-09-28T19:01:28.946Z,70.67
2022-09-28T19:03:56.744Z,71.89
2022-09-28T19:06:23.478Z,73.11
2022-09-28T19:08:55.692Z,73.55
2022-09-28T19:11:23.848Z,73.60
2022-09-28T19:13:53.370Z,74.57
2022-09-28T19:16:25.734Z,76.98
2022-09-28T19:18:53.906Z,76.92
2022-09-28T19:21:21.094Z,77.08
2022-09-28T19:23:49.954Z,76.51
2022-09-28T19:26:20.401Z,75.49
2022-09-28T19:28:48.663Z,75.48
2022-09-28T19:31:16.204Z,75.02
2022-09-28T19:33:45.879Z,73.84
2022-09-28T19:36:19.039Z,72.92
2022-09-28T19:38:46.230Z,72.86
2022-09-28T19:41:39.597Z,74.36
2022-09-28T19:44:29.983Z,74.51
2022-09-28T19:47:04.251Z,75.69
2022-09-28T19:49:33.299Z,75.49
2022-09-28T19:52:16.177Z,76.39
2022-09-28T19:54:45.520Z,75.92
2022-09-28T19:57:14.493Z,75.21
2022-09-28T19:59:41.623Z,73.72
2022-09-28T20:02:10.465Z,72.38
2022-09-28T20:04:37.485Z,72.34
2022-09-28T20:07:05.237Z,72.25
2022-09-28T20:09:33.259Z,72.16
2022-09-28T20:12:05.239Z,71.47
2022-09-28T20:14:36.537Z,70.33
2022-09-28T20:17:06.162Z,68.94
2022-09-28T20:19:33.669Z,70.18
2022-09-28T20:22:02.856Z,68.88
2022-09-28T20:24:31.559Z,69.74
2022-09-28T20:26:58.733Z,69.47
2022-09-28T20:29:25.579Z,69.25
2022-09-28T20:31:52.315Z,68.22
2022-09-28T20:34:18.944Z,69.10
2022-09-28T20:36:45.745Z,68.13
2022-09-28T20:39:13.018Z,68.60
2022-09-28T20:41:40.298Z,68.11
2022-09-28T20:44:07.273Z,68.82
2022-09-28T20:46:35.526Z,68.79
2022-09-28T20:49:03.070Z,68.94
2022-09-28T20:51:30.085Z,69.55
2022-09-28T20:53:59.239Z,69.43
2022-09-28T20:56:26.898Z,70.67
2022-09-28T20:58:54.380Z,69.11
2022-09-28T21:01:30.282Z,70.14
2022-09-28T21:03:59.553Z,69.34
2022-09-28T21:06:29.553Z,70.23
2022-09-28T21:08:56.774Z,69.96
2022-09-28T21:11:25.334Z,70.27
2022-09-28T21:13:53.751Z,71.43
2022-09-28T21:16:20.707Z,70.38
2022-09-28T21:18:47.904Z,69.37
2022-09-28T21:21:17.106Z,69.38
2022-09-28T21:23:46.675Z,69.46
2022-09-28T21:26:27.565Z,69.49
2022-09-28T21:29:01.270Z,69.87
2022-09-28T21:31:31.955Z,70.04
2022-09-28T21:33:59.976Z,70.60
2022-09-28T21:36:26.795Z,70.69
2022-09-28T21:38:56.197Z,70.41
2022-09-28T21:41:26.138Z,70.77
2022-09-28T21:43:53.089Z,71.74
2022-09-28T21:46:20.010Z,72.77
2022-09-28T21:48:50.704Z,73.38
2022-09-28T21:51:17.657Z,73.65
2022-09-28T21:53:44.398Z,72.82
2022-09-28T21:56:11.913Z,71.66
2022-09-28T21:58:40.160Z,72.56
2022-09-28T22:01:13.193Z,71.88
2022-09-28T22:03:41.250Z,71.08
2022-09-28T22:06:08.562Z,71.55
2022-09-28T22:08:36.934Z,71.62
2022-09-28T22:11:05.711Z,71.20
2022-09-28T22:13:43.199Z,71.87
2022-09-28T22:16:11.477Z,71.35
2022-09-28T22:18:38.918Z,71.96
2022-09-28T22:21:08.906Z,72.54
2022-09-28T22:23:36.631Z,71.87
2022-09-28T22:26:07.072Z,72.84
2022-09-28T22:28:34.817Z,72.14
2022-09-28T22:31:01.736Z,71.99
2022-09-28T22:33:28.634Z,74.07
2022-09-28T22:35:55.520Z,72.77
2022-09-28T22:38:24.659Z,73.56
2022-09-28T22:40:54.645Z,73.86
2022-09-28T22:43:26.204Z,74.42
2022-09-28T22:46:06.697Z,74.55
2022-09-28T22:48:34.928Z,73.53
2022-09-28T22:51:03.058Z,73.66
2022-09-28T22:53:30.424Z,74.05
2022-09-28T22:55:59.030Z,73.59
2022-09-28T22:58:25.703Z,75.41
2022-09-28T23:00:52.572Z,75.65
2022-09-28T23:03:19.143Z,75.20
2022-09-28T23:05:54.145Z,75.01
2022-09-28T23:08:21.326Z,74.56
2022-09-28T23:10:48.059Z,75.18
2022-09-28T23:13:14.750Z,75.24
2022-09-28T23:15:41.543Z,73.97
2022-09-28T23:18:12.443Z,73.97
2022-09-28T23:20:39.739Z,74.20
2022-09-28T23:23:06.722Z,75.08
2022-09-28T23:25:33.645Z,74.59
2022-09-28T23:28:01.398Z,74.49
2022-09-28T23:30:28.123Z,74.47
2022-09-28T23:32:54.953Z,73.32
2022-09-28T23:35:21.848Z,73.37
2022-09-28T23:37:51.981Z,72.91
2022-09-28T23:40:18.965Z,72.79
2022-09-28T23:42:45.607Z,72.83
2022-09-28T23:45:12.225Z,72.21
2022-09-28T23:47:40.512Z,72.07
2022-09-28T23:50:07.799Z,72.73
2022-09-28T23:52:35.063Z,72.71
2022-09-28T23:55:01.853Z,73.43
2022-09-28T23:57:29.069Z,73.89
2022-09-28T23:59:55.915Z,73.57
